createdAt,value
2019-02-25T00:03:28.982Z,48.20
2019-02-25T00:06:10.122Z,48.10
2019-02-25T00:08:50.670Z,48.50
2019-02-25T00:11:31.236Z,48.40
2019-02-25T00:14:12.012Z,47.80
2019-02-25T00:16:52.908Z,48.50
2019-02-25T00:19:33.905Z,48.30
2019-02-25T00:22:14.703Z,48.20
2019-02-25T00:24:55.411Z,48.20
2019-02-25T00:27:36.651Z,48.10
2019-02-25T00:30:17.419Z,48.60
2019-02-25T00:32:58.249Z,48.50
2019-02-25T00:35:39.684Z,48.70
2019-02-25T00:38:20.247Z,48.70
2019-02-25T00:41:01.028Z,47.90
2019-02-25T00:43:41.675Z,48.50
2019-02-25T00:46:22.075Z,48.50
2019-02-25T00:49:03.337Z,49.00
2019-02-25T00:51:44.677Z,49.00
2019-02-25T00:54:25.165Z,49.40
2019-02-25T00:57:05.959Z,48.70
2019-02-25T00:59:46.881Z,49.30
2019-02-25T01:02:28.250Z,48.30
2019-02-25T01:05:09.005Z,49.50
2019-02-25T01:07:49.983Z,49.10
2019-02-25T01:10:30.726Z,50.30
2019-02-25T01:13:11.583Z,49.10
2019-02-25T01:15:52.503Z,49.80
2019-02-25T01:18:32.872Z,49.00
2019-02-25T01:21:13.947Z,49.00
2019-02-25T01:23:54.687Z,49.40
2019-02-25T01:26:35.792Z,49.30
2019-02-25T01:29:17.132Z,49.60
2019-02-25T01:31:58.375Z,50.30
2019-02-25T01:34:39.443Z,48.40
2019-02-25T01:37:20.614Z,49.50
2019-02-25T01:40:01.267Z,49.90
2019-02-25T01:42:42.495Z,49.60
2019-02-25T01:45:23.156Z,50.20
2019-02-25T01:48:04.196Z,49.60
2019-02-25T01:50:45.759Z,49.50
2019-02-25T01:53:26.267Z,50.00
2019-02-25T01:56:06.900Z,50.00
2019-02-25T01:58:47.379Z,49.90
2019-02-25T02:01:28.260Z,49.90
2019-02-25T02:04:09.882Z,50.00
2019-02-25T02:06:50.898Z,50.00
2019-02-25T02:09:32.471Z,49.50
2019-02-25T02:12:13.377Z,50.10
2019-02-25T02:14:54.678Z,49.00
2019-02-25T02:17:35.783Z,49.80
2019-02-25T02:20:16.776Z,49.60
2019-02-25T02:22:58.084Z,49.90
2019-02-25T02:25:39.002Z,50.40
2019-02-25T02:28:20.055Z,50.20
2019-02-25T02:31:00.765Z,50.10
2019-02-25T02:33:42.003Z,50.80
2019-02-25T02:36:22.719Z,49.90
2019-02-25T02:39:04.388Z,50.50
2019-02-25T02:41:45.319Z,50.40
2019-02-25T02:44:25.759Z,50.40
2019-02-25T02:47:06.957Z,50.60
2019-02-25T02:49:48.219Z,50.30
2019-02-25T02:52:27.769Z,50.60
2019-02-25T02:55:08.623Z,50.60
2019-02-25T02:57:49.563Z,51.30
2019-02-25T03:00:30.773Z,51.00
2019-02-25T03:03:10.770Z,51.10
2019-02-25T03:05:51.698Z,51.00
2019-02-25T03:08:32.269Z,51.10
2019-02-25T03:11:13.502Z,50.60
2019-02-25T03:13:54.203Z,51.20
2019-02-25T03:16:35.495Z,50.70
2019-02-25T03:19:16.557Z,50.90
2019-02-25T03:21:57.076Z,51.30
2019-02-25T03:24:38.391Z,51.30
2019-02-25T03:27:18.852Z,51.20
2019-02-25T03:29:59.301Z,51.40
2019-02-25T03:32:40.107Z,51.10
2019-02-25T03:35:20.871Z,51.20
2019-02-25T03:38:01.485Z,51.30
2019-02-25T03:40:42.621Z,51.60
2019-02-25T03:43:23.881Z,51.10
2019-02-25T03:46:04.715Z,51.80
2019-02-25T03:48:46.043Z,51.00
2019-02-25T03:51:27.039Z,51.30
2019-02-25T03:54:08.338Z,51.80
2019-02-25T03:56:49.013Z,51.50
2019-02-25T03:59:30.363Z,50.80
2019-02-25T04:02:11.333Z,51.60
2019-02-25T04:04:52.127Z,51.20
2019-02-25T04:07:32.945Z,52.20
2019-02-25T04:10:13.699Z,52.00
2019-02-25T04:12:54.363Z,52.00
2019-02-25T04:15:41.300Z,51.70
2019-02-25T04:18:22.557Z,52.50
2019-02-25T04:21:03.279Z,51.70
2019-02-25T04:23:44.682Z,51.90
2019-02-25T04:26:25.112Z,52.00
2019-02-25T04:29:05.582Z,52.20
2019-02-25T04:31:46.170Z,52.30
2019-02-25T04:34:26.851Z,51.80
2019-02-25T04:37:07.381Z,51.20
2019-02-25T04:39:48.224Z,52.10
2019-02-25T04:42:29.120Z,52.20
2019-02-25T04:45:09.837Z,52.10
2019-02-25T04:47:50.633Z,51.90
2019-02-25T04:50:31.681Z,52.10
2019-02-25T04:53:12.539Z,52.00
2019-02-25T04:55:53.326Z,52.00
2019-02-25T04:58:34.461Z,52.10
2019-02-25T05:01:15.204Z,52.40
2019-02-25T05:03:55.684Z,52.90
2019-02-25T05:06:36.780Z,53.10
2019-02-25T05:09:17.983Z,52.80
2019-02-25T05:11:58.772Z,52.30
2019-02-25T05:14:40.053Z,52.40
2019-02-25T05:17:20.945Z,52.60
2019-02-25T05:20:00.685Z,52.70
2019-02-25T05:22:41.745Z,52.60
2019-02-25T05:25:22.435Z,52.30
2019-02-25T05:28:02.824Z,51.70
2019-02-25T05:30:43.643Z,52.00
2019-02-25T05:33:24.057Z,52.90
2019-02-25T05:36:04.856Z,53.60
2019-02-25T05:38:44.536Z,53.00
2019-02-25T05:41:25.533Z,52.40
2019-02-25T05:44:08.473Z,52.90
2019-02-25T05:46:48.328Z,52.60
2019-02-25T05:49:29.049Z,52.60
2019-02-25T05:52:09.935Z,52.40
2019-02-25T05:54:50.700Z,53.00
2019-02-25T05:57:31.538Z,53.00
2019-02-25T06:00:13.220Z,51.90
2019-02-25T06:02:54.388Z,52.00
2019-02-25T06:05:35.374Z,52.70
2019-02-25T06:08:16.537Z,52.70
2019-02-25T06:10:57.523Z,52.70
2019-02-25T06:13:38.159Z,53.00
2019-02-25T06:16:18.991Z,52.80
2019-02-25T06:18:59.612Z,53.00
2019-02-25T06:21:40.398Z,53.40
2019-02-25T06:24:20.959Z,52.90
2019-02-25T06:27:01.779Z,52.80
2019-02-25T06:29:43.092Z,53.00
2019-02-25T06:32:23.792Z,53.40
2019-02-25T06:35:04.697Z,52.10
2019-02-25T06:37:45.342Z,52.30
2019-02-25T06:40:26.240Z,52.80
2019-02-25T06:43:07.216Z,52.60
2019-02-25T06:45:48.053Z,53.00
2019-02-25T06:48:28.495Z,53.00
2019-02-25T06:51:09.062Z,52.80
2019-02-25T06:53:49.580Z,52.60
2019-02-25T06:56:30.699Z,52.10
2019-02-25T06:59:11.075Z,52.70
2019-02-25T07:01:51.709Z,52.60
2019-02-25T07:04:37.907Z,52.70
2019-02-25T07:07:28.382Z,52.50
2019-02-25T07:10:28.415Z,52.40
2019-02-25T07:13:29.135Z,52.20
2019-02-25T07:16:20.023Z,52.00
2019-02-25T07:19:22.725Z,51.60
2019-02-25T07:22:10.660Z,50.70
2019-02-25T07:24:59.501Z,51.20
2019-02-25T07:28:00.369Z,50.90
2019-02-25T07:30:58.022Z,50.50
2019-02-25T07:33:57.815Z,50.30
2019-02-25T07:37:00.581Z,49.90
2019-02-25T07:43:07.892Z,48.80
2019-02-25T07:46:09.209Z,48.10
2019-02-25T07:49:15.332Z,47.20
2019-02-25T07:52:02.157Z,47.80
2019-02-25T07:57:55.202Z,46.90
2019-02-25T08:01:03.550Z,46.50
2019-02-25T08:03:53.153Z,45.60
2019-02-25T08:06:52.973Z,45.10
2019-02-25T08:09:55.579Z,45.00
2019-02-25T08:12:43.353Z,43.60
2019-02-25T08:18:41.668Z,43.40
2019-02-25T08:21:44.675Z,42.60
2019-02-25T08:27:36.972Z,41.90
2019-02-25T08:30:44.130Z,40.30
2019-02-25T08:33:45.663Z,40.70
2019-02-25T08:36:34.091Z,39.30
2019-02-25T08:39:30.446Z,38.70
2019-02-25T08:42:19.436Z,38.20
2019-02-25T08:45:06.212Z,33.90
2019-02-25T08:47:53.803Z,37.90
2019-02-25T08:50:35.015Z,36.40
2019-02-25T08:53:16.071Z,36.50
2019-02-25T08:55:58.304Z,35.10
2019-02-25T08:58:38.759Z,35.80
2019-02-25T09:01:19.750Z,35.70
2019-02-25T09:04:00.654Z,36.50
2019-02-25T09:06:42.015Z,35.80
2019-02-25T09:09:22.472Z,36.50
2019-02-25T09:12:02.935Z,35.60
2019-02-25T09:14:43.712Z,36.20
2019-02-25T09:17:24.675Z,35.90
2019-02-25T09:20:05.383Z,34.90
2019-02-25T09:22:46.643Z,34.80
2019-02-25T09:25:15.749Z,34.00
2019-02-25T09:28:03.991Z,33.20
2019-02-25T09:30:52.184Z,34.50
2019-02-25T09:33:33.318Z,32.60
2019-02-25T09:36:14.131Z,32.80
2019-02-25T09:38:56.635Z,30.60
2019-02-25T09:41:37.024Z,33.30
2019-02-25T09:44:17.811Z,33.70
2019-02-25T09:46:58.351Z,33.30
2019-02-25T09:49:39.592Z,31.80
2019-02-25T09:52:20.194Z,32.90
2019-02-25T09:57:39.846Z,32.30
2019-02-25T10:00:20.743Z,33.10
2019-02-25T10:03:01.985Z,32.30
2019-02-25T10:05:42.584Z,32.40
2019-02-25T10:08:23.274Z,31.50
2019-02-25T10:11:04.041Z,32.10
2019-02-25T10:13:44.943Z,31.70
2019-02-25T10:16:25.769Z,31.30
2019-02-25T10:19:06.640Z,30.60
2019-02-25T10:21:47.315Z,29.10
2019-02-25T10:24:28.103Z,29.60
2019-02-25T10:27:09.024Z,30.00
2019-02-25T10:29:49.921Z,29.60
2019-02-25T10:32:30.789Z,29.60
2019-02-25T10:35:11.702Z,30.40
2019-02-25T10:37:52.955Z,29.50
2019-02-25T10:40:33.735Z,30.00
2019-02-25T10:43:14.357Z,30.20
2019-02-25T10:45:55.121Z,30.50
2019-02-25T10:48:36.294Z,29.90
2019-02-25T10:51:16.926Z,30.00
2019-02-25T10:53:57.667Z,29.40
2019-02-25T10:56:38.816Z,27.80
2019-02-25T10:59:19.843Z,25.30
2019-02-25T11:02:00.899Z,27.80
2019-02-25T11:04:41.758Z,28.60
2019-02-25T11:07:22.765Z,28.60
2019-02-25T11:10:09.465Z,28.50
2019-02-25T11:12:50.427Z,28.50
2019-02-25T11:15:32.428Z,29.00
2019-02-25T11:18:13.367Z,28.00
2019-02-25T11:20:54.229Z,28.10
2019-02-25T11:23:35.164Z,28.60
2019-02-25T11:26:15.850Z,28.70
2019-02-25T11:28:56.731Z,29.10
2019-02-25T11:31:37.517Z,29.40
2019-02-25T11:34:18.143Z,29.10
2019-02-25T11:36:59.503Z,29.30
2019-02-25T11:39:40.727Z,29.30
2019-02-25T11:42:21.674Z,28.30
2019-02-25T11:45:04.474Z,29.30
2019-02-25T11:47:44.992Z,29.20
2019-02-25T11:50:25.972Z,29.10
2019-02-25T11:53:05.814Z,28.50
2019-02-25T11:55:46.899Z,28.60
2019-02-25T11:58:27.683Z,28.60
2019-02-25T12:01:08.587Z,28.70
2019-02-25T12:03:49.379Z,28.50
2019-02-25T12:06:30.198Z,28.50
2019-02-25T12:09:10.980Z,28.70
2019-02-25T12:11:52.063Z,28.00
2019-02-25T12:14:33.701Z,28.50
2019-02-25T12:17:14.760Z,27.80
2019-02-25T12:19:55.505Z,27.80
2019-02-25T12:22:36.403Z,28.80
2019-02-25T12:25:17.188Z,29.00
2019-02-25T12:27:58.200Z,28.60
2019-02-25T12:30:38.914Z,28.70
2019-02-25T12:33:19.669Z,29.10
2019-02-25T12:36:00.327Z,29.40
2019-02-25T12:38:40.891Z,29.00
2019-02-25T12:41:21.344Z,29.30
2019-02-25T12:44:02.498Z,29.40
2019-02-25T12:46:42.928Z,29.50
2019-02-25T12:49:23.580Z,30.00
2019-02-25T12:52:04.246Z,30.10
2019-02-25T12:54:45.272Z,30.00
2019-02-25T12:57:25.962Z,30.00
2019-02-25T13:00:06.948Z,30.50
2019-02-25T13:02:48.017Z,30.20
2019-02-25T13:05:28.992Z,30.90
2019-02-25T13:08:09.849Z,31.00
2019-02-25T13:10:50.839Z,30.90
2019-02-25T13:13:31.598Z,30.80
2019-02-25T13:16:12.303Z,31.20
2019-02-25T13:18:53.399Z,30.50
2019-02-25T13:21:34.043Z,31.50
2019-02-25T13:24:14.871Z,31.80
2019-02-25T13:26:55.597Z,31.80
2019-02-25T13:29:36.464Z,31.70
2019-02-25T13:32:17.108Z,31.30
2019-02-25T13:34:57.004Z,31.00
2019-02-25T13:37:38.008Z,31.60
2019-02-25T13:40:18.804Z,31.60
2019-02-25T13:42:59.500Z,31.90
2019-02-25T13:45:40.069Z,32.10
2019-02-25T13:48:20.827Z,32.20
2019-02-25T13:51:01.785Z,32.40
2019-02-25T13:53:42.608Z,32.10
2019-02-25T13:56:23.492Z,31.60
2019-02-25T13:59:04.246Z,32.10
2019-02-25T14:01:43.976Z,32.10
2019-02-25T14:04:24.974Z,32.30
2019-02-25T14:07:06.276Z,32.10
2019-02-25T14:09:47.227Z,32.50
2019-02-25T14:12:27.907Z,32.50
2019-02-25T14:15:08.319Z,32.70
2019-02-25T14:17:49.721Z,32.80
2019-02-25T14:20:30.874Z,33.10
2019-02-25T14:23:11.848Z,33.40
2019-02-25T14:25:52.512Z,33.50
2019-02-25T14:28:33.535Z,33.70
2019-02-25T14:31:14.359Z,33.80
2019-02-25T14:33:55.125Z,34.20
2019-02-25T14:36:36.251Z,34.50
2019-02-25T14:39:17.462Z,34.60
2019-02-25T14:41:59.300Z,35.00
2019-02-25T14:44:43.294Z,35.30
2019-02-25T14:47:29.887Z,35.10
2019-02-25T14:50:05.946Z,34.80
2019-02-25T14:52:45.668Z,35.30
2019-02-25T14:55:26.721Z,35.40
2019-02-25T14:57:59.892Z,35.70
2019-02-25T15:00:45.812Z,35.90
2019-02-25T15:03:27.424Z,35.80
2019-02-25T15:06:10.063Z,36.00
2019-02-25T15:08:39.139Z,35.80
2019-02-25T15:11:27.536Z,36.10
2019-02-25T15:14:17.121Z,35.90
2019-02-25T15:16:58.061Z,35.80
2019-02-25T15:19:40.781Z,35.80
2019-02-25T15:22:22.377Z,36.10
2019-02-25T15:25:03.330Z,36.00
2019-02-25T15:27:44.173Z,36.20
2019-02-25T15:30:27.688Z,36.40
2019-02-25T15:33:07.771Z,36.30
2019-02-25T15:35:48.886Z,36.20
2019-02-25T15:38:30.884Z,36.40
2019-02-25T15:41:11.870Z,36.40
2019-02-25T15:43:52.735Z,36.20
2019-02-25T15:46:33.508Z,35.90
2019-02-25T15:49:16.909Z,36.10
2019-02-25T15:51:57.322Z,36.20
2019-02-25T15:54:39.352Z,36.00
2019-02-25T15:57:22.576Z,36.20
2019-02-25T16:00:04.202Z,36.40
2019-02-25T16:02:44.999Z,36.60
2019-02-25T16:08:04.591Z,36.50
2019-02-25T16:10:44.283Z,36.80
2019-02-25T16:13:25.575Z,36.90
2019-02-25T16:16:06.462Z,37.20
2019-02-25T16:18:46.918Z,36.50
2019-02-25T16:21:27.671Z,37.30
2019-02-25T16:24:11.805Z,37.60
2019-02-25T16:26:51.232Z,37.80
2019-02-25T16:29:32.061Z,38.00
2019-02-25T16:32:12.983Z,38.40
2019-02-25T16:34:53.521Z,38.60
2019-02-25T16:37:35.560Z,38.90
2019-02-25T16:40:16.051Z,39.00
2019-02-25T16:42:59.463Z,39.00
2019-02-25T16:45:40.210Z,39.30
2019-02-25T16:48:24.262Z,39.40
2019-02-25T16:51:06.872Z,39.50
2019-02-25T16:53:50.472Z,40.50
2019-02-25T16:56:29.892Z,40.20
2019-02-25T16:59:11.094Z,40.30
2019-02-25T17:01:55.856Z,41.00
2019-02-25T17:04:35.123Z,41.20
2019-02-25T17:07:18.152Z,41.20
2019-02-25T17:09:59.458Z,41.60
2019-02-25T17:12:41.562Z,41.70
2019-02-25T17:15:26.337Z,41.80
2019-02-25T17:18:05.567Z,42.00
2019-02-25T17:20:49.693Z,42.00
2019-02-25T17:23:30.197Z,42.30
2019-02-25T17:26:12.566Z,42.70
2019-02-25T17:28:54.296Z,42.70
2019-02-25T17:31:36.549Z,42.90
2019-02-25T17:34:19.211Z,42.90
2019-02-25T17:37:01.202Z,43.30
2019-02-25T17:39:42.670Z,43.40
2019-02-25T17:42:24.245Z,43.80
2019-02-25T17:45:07.770Z,43.70
2019-02-25T17:47:48.454Z,43.90
2019-02-25T17:50:30.256Z,44.20
2019-02-25T17:53:01.337Z,44.60
2019-02-25T17:55:51.194Z,45.30
2019-02-25T17:58:31.784Z,45.60
2019-02-25T18:01:12.875Z,45.60
2019-02-25T18:03:53.239Z,45.50
2019-02-25T18:06:36.203Z,45.90
2019-02-25T18:09:18.223Z,46.10
2019-02-25T18:12:00.507Z,46.50
2019-02-25T18:14:43.176Z,46.90
2019-02-25T18:17:24.790Z,46.60
2019-02-25T18:20:04.504Z,46.80
2019-02-25T18:22:45.770Z,46.80
2019-02-25T18:25:26.229Z,46.90
2019-02-25T18:28:08.374Z,46.90
2019-02-25T18:30:50.149Z,47.00
2019-02-25T18:33:31.651Z,47.30
2019-02-25T18:36:12.452Z,46.50
2019-02-25T18:38:54.811Z,46.30
2019-02-25T18:41:36.040Z,47.50
2019-02-25T18:44:16.775Z,47.80
2019-02-25T18:46:59.799Z,48.10
2019-02-25T18:49:41.133Z,47.80
2019-02-25T18:52:21.969Z,48.30
2019-02-25T18:55:04.390Z,48.30
2019-02-25T18:57:46.095Z,48.50
2019-02-25T19:00:32.372Z,48.80
2019-02-25T19:03:13.517Z,48.80
2019-02-25T19:05:55.449Z,48.90
2019-02-25T19:08:36.512Z,48.90
2019-02-25T19:11:19.044Z,49.50
2019-02-25T19:13:49.782Z,49.30
2019-02-25T19:16:39.658Z,49.40
2019-02-25T19:19:20.908Z,49.50
2019-02-25T19:22:01.645Z,49.50
2019-02-25T19:24:44.418Z,49.60
2019-02-25T19:27:27.259Z,49.70
2019-02-25T19:30:08.175Z,50.00
2019-02-25T19:32:49.451Z,49.90
2019-02-25T19:35:31.050Z,50.00
2019-02-25T19:38:15.299Z,50.20
2019-02-25T19:40:57.596Z,50.30
2019-02-25T19:43:39.943Z,50.50
2019-02-25T19:46:11.020Z,50.30
2019-02-25T19:48:59.325Z,50.40
2019-02-25T19:51:48.385Z,50.60
2019-02-25T19:54:19.117Z,49.90
2019-02-25T19:57:07.300Z,50.80
2019-02-25T19:59:50.565Z,50.60
2019-02-25T20:02:32.200Z,50.90
2019-02-25T20:05:16.523Z,50.30
2019-02-25T20:07:57.045Z,50.90
2019-02-25T20:10:37.930Z,51.20
2019-02-25T20:13:21.858Z,51.10
2019-02-25T20:16:07.954Z,51.30
2019-02-25T20:18:44.103Z,51.60
2019-02-25T20:21:27.203Z,51.60
2019-02-25T20:24:12.372Z,51.50
2019-02-25T20:26:55.061Z,51.50
2019-02-25T20:29:34.273Z,51.80
2019-02-25T20:32:16.451Z,52.00
2019-02-25T20:34:59.349Z,52.10
2019-02-25T20:37:40.888Z,52.40
2019-02-25T20:40:24.139Z,52.20
2019-02-25T20:43:05.069Z,52.20
2019-02-25T20:45:48.134Z,52.10
2019-02-25T20:48:29.662Z,51.60
2019-02-25T20:51:11.815Z,51.60
2019-02-25T20:53:52.955Z,52.40
2019-02-25T20:56:34.543Z,52.40
2019-02-25T20:59:15.382Z,52.60
2019-02-25T21:01:55.865Z,52.50
2019-02-25T21:04:36.749Z,52.10
2019-02-25T21:07:19.027Z,51.80
2019-02-25T21:10:01.001Z,52.50
2019-02-25T21:12:43.320Z,52.50
2019-02-25T21:15:24.635Z,52.30
2019-02-25T21:18:07.521Z,52.30
2019-02-25T21:20:49.383Z,52.40
2019-02-25T21:23:30.718Z,52.70
2019-02-25T21:26:11.730Z,52.30
2019-02-25T21:28:54.059Z,52.50
2019-02-25T21:31:35.087Z,52.20
2019-02-25T21:34:20.566Z,52.20
2019-02-25T21:37:00.712Z,52.90
2019-02-25T21:39:42.843Z,53.00
2019-02-25T21:42:24.675Z,53.40
2019-02-25T21:45:06.509Z,53.30
2019-02-25T21:47:47.601Z,53.70
2019-02-25T21:50:30.793Z,52.60
2019-02-25T21:53:12.219Z,53.40
2019-02-25T21:55:53.528Z,53.60
2019-02-25T21:58:35.923Z,53.30
2019-02-25T22:01:16.904Z,53.30
2019-02-25T22:03:58.414Z,53.60
2019-02-25T22:06:39.270Z,53.50
2019-02-25T22:09:35.476Z,53.40
2019-02-25T22:12:02.613Z,53.60
2019-02-25T22:14:45.491Z,53.60
2019-02-25T22:17:26.703Z,53.90
2019-02-25T22:20:09.629Z,53.90
2019-02-25T22:22:54.548Z,53.80
2019-02-25T22:25:21.386Z,53.40
2019-02-25T22:28:10.053Z,53.70
2019-02-25T22:30:54.076Z,53.40
2019-02-25T22:33:35.708Z,53.50
2019-02-25T22:36:16.726Z,53.90
2019-02-25T22:38:59.061Z,53.40
2019-02-25T22:41:42.312Z,53.50
2019-02-25T22:44:12.216Z,53.10
2019-02-25T22:47:00.971Z,53.60
2019-02-25T22:49:41.908Z,53.90
2019-02-25T22:52:13.102Z,54.00
2019-02-25T22:55:01.631Z,54.00
2019-02-25T22:57:53.505Z,53.90
2019-02-25T23:00:34.500Z,54.00
2019-02-25T23:03:17.895Z,54.00
2019-02-25T23:05:58.437Z,54.20
2019-02-25T23:08:42.055Z,54.30
2019-02-25T23:11:23.738Z,54.00
2019-02-25T23:14:04.559Z,54.20
2019-02-25T23:16:45.798Z,54.10
2019-02-25T23:19:28.207Z,54.20
2019-02-25T23:22:08.727Z,54.50
2019-02-25T23:24:50.015Z,53.50
2019-02-25T23:27:32.255Z,53.80
2019-02-25T23:30:12.993Z,55.20
2019-02-25T23:32:54.425Z,54.80
2019-02-25T23:35:34.648Z,54.10
2019-02-25T23:38:15.952Z,54.60
2019-02-25T23:40:57.043Z,55.10
2019-02-25T23:43:38.583Z,54.80
2019-02-25T23:46:23.227Z,54.70
2019-02-25T23:49:03.093Z,55.00
2019-02-25T23:51:44.180Z,55.50
2019-02-25T23:54:28.059Z,54.50
2019-02-25T23:57:09.603Z,54.80
2019-02-25T23:59:51.122Z,55.00
